Terminal Aerodrome Forecast
Issued by NWS

Home | Current Version | Previous Version | Text Only | Print | Product List | Glossary On
Versions: 1 2 3 4 5 6 7 8 9 10 11 12 13 14 15 16 17 18
000
FTUS43 KSGF 232300
TAFJLN
TAF
KJLN 232334Z 2400/2424 12010KT P6SM BKN040 OVC060
     FM240500 14014KT P6SM BKN040 OVC080 WS015/15045KT
     FM240900 14013G22KT 6SM -TSRA BKN035CB OVC060 WS015/17045KT
      TEMPO 2410/2414 4SM -TSRA OVC030CB
     FM241600 18015G26KT P6SM SCT030 BKN070=

USA.gov is the U.S. government's official web portal to all federal, state and local government web resources and services.